Time;durP1;ratioP1;P1;durP2;ratioP2;P2;SDS_P1;SDS_P2;PMS_P1;PMS_P2;Temp;Humidity;BMP_temperature;BMP_pressure;BME280_temperature;BME280_humidity;BME280_pressure;Samples;Min_cycle;Max_cycle;Signal;HPM_P1;HPM_P2
2022/09/17 00:01:16;;;;;;;21.67;2.53;;;11.10;99.90;;;;;;5067633;28;20048;-52
2022/09/17 00:03:44;;;;;;;17.10;3.45;;;11.10;99.90;;;;;;5055089;28;20057;-54
2022/09/17 00:06:12;;;;;;;15.43;3.00;;;11.00;99.90;;;;;;5069326;28;20102;-53
2022/09/17 00:08:39;;;;;;;14.27;2.60;;;11.00;99.90;;;;;;5033490;28;20485;-53
2022/09/17 00:11:07;;;;;;;19.23;3.03;;;10.90;99.90;;;;;;5065821;28;20160;-50
2022/09/17 00:13:33;;;;;;;18.52;2.75;;;10.90;99.90;;;;;;5050772;28;20048;-51
2022/09/17 00:16:02;;;;;;;18.45;2.92;;;10.80;99.90;;;;;;5056443;28;20118;-47
2022/09/17 00:18:29;;;;;;;18.25;3.10;;;10.90;99.90;;;;;;5060886;28;20102;-51
2022/09/17 00:20:55;;;;;;;18.52;2.75;;;10.80;99.90;;;;;;5059420;28;20135;-53
2022/09/17 00:23:22;;;;;;;21.67;2.80;;;10.80;99.90;;;;;;5062198;28;20088;-53
2022/09/17 00:25:49;;;;;;;27.02;3.20;;;10.80;99.90;;;;;;5070861;28;20531;-47
2022/09/17 00:28:16;;;;;;;28.88;3.17;;;10.80;99.90;;;;;;5061680;28;20084;-50
2022/09/17 00:30:43;;;;;;;16.00;3.17;;;10.80;99.90;;;;;;5064000;28;20090;-51
2022/09/17 00:33:12;;;;;;;20.90;3.20;;;10.90;99.90;;;;;;5054211;28;20106;-53
2022/09/17 00:35:39;;;;;;;28.02;3.95;;;10.80;99.90;;;;;;5046202;28;20098;-50
2022/09/17 00:38:06;;;;;;;20.60;2.90;;;10.90;99.90;;;;;;5061236;28;20072;-52
2022/09/17 00:40:33;;;;;;;20.20;2.78;;;10.90;99.90;;;;;;5070617;28;20106;-49
2022/09/17 00:43:00;;;;;;;16.73;3.00;;;10.90;99.90;;;;;;5070166;28;20044;-53
2022/09/17 00:45:27;;;;;;;20.90;2.75;;;10.90;99.90;;;;;;5054468;28;20370;-54
2022/09/17 00:47:59;;;;;;;21.27;3.55;;;10.90;99.90;;;;;;5052646;28;20140;-51
2022/09/17 00:50:28;;;;;;;22.73;3.25;;;11.00;99.90;;;;;;5051553;28;20049;-52
2022/09/17 00:52:56;;;;;;;24.40;3.22;;;10.90;99.90;;;;;;5065372;28;20554;-53
2022/09/17 00:55:25;;;;;;;15.07;2.53;;;10.90;99.90;;;;;;5068461;28;20459;-53
2022/09/17 00:57:53;;;;;;;17.10;3.22;;;10.90;99.90;;;;;;5030671;28;20150;-55
2022/09/17 01:00:21;;;;;;;13.75;2.22;;;10.80;99.90;;;;;;5037844;28;20125;-54
2022/09/17 01:02:48;;;;;;;16.40;2.83;;;10.80;99.90;;;;;;5051070;28;20052;-54
2022/09/17 01:05:15;;;;;;;19.60;2.95;;;10.80;99.90;;;;;;5048644;28;20068;-51
2022/09/17 01:07:56;;;;;;;11.27;2.28;;;10.80;99.90;;;;;;5033797;28;20053;-55
2022/09/17 01:10:33;;;;;;;16.88;2.75;;;10.80;99.90;;;;;;5044610;28;20130;-54
2022/09/17 01:13:06;;;;;;;13.43;2.20;;;10.80;99.90;;;;;;5050486;28;20429;-52
2022/09/17 01:15:35;;;;;;;16.38;2.45;;;10.70;99.90;;;;;;5052031;28;20099;-52
2022/09/17 01:18:13;;;;;;;22.58;2.92;;;10.70;99.90;;;;;;5049595;28;20128;-46
2022/09/17 01:21:33;;;;;;;12.65;2.22;;;10.70;99.90;;;;;;5048066;28;20044;-52
2022/09/17 01:24:40;;;;;;;14.93;2.28;;;10.70;99.90;;;;;;5051602;28;20468;-54
2022/09/17 01:27:38;;;;;;;10.27;2.03;;;10.70;99.90;;;;;;5043137;28;20049;-52
2022/09/17 01:30:18;;;;;;;12.23;2.58;;;10.60;99.90;;;;;;5020011;28;20149;-55
2022/09/17 01:32:47;;;;;;;10.10;2.03;;;10.60;99.90;;;;;;5042731;28;20068;-52
2022/09/17 01:35:18;;;;;;;17.35;3.03;;;10.60;99.90;;;;;;5034256;28;20100;-51
2022/09/17 01:37:48;;;;;;;22.52;3.22;;;10.60;99.90;;;;;;5035117;28;20061;-54
2022/09/17 01:40:23;;;;;;;16.65;2.88;;;10.60;99.90;;;;;;5035792;28;20053;-54
2022/09/17 01:42:51;;;;;;;26.48;3.47;;;10.60;99.90;;;;;;5049922;28;20041;-53
2022/09/17 01:45:21;;;;;;;25.45;3.88;;;10.50;99.90;;;;;;5051682;28;20091;-51
2022/09/17 01:47:50;;;;;;;24.58;3.08;;;10.60;99.90;;;;;;5050280;28;20048;-55
2022/09/17 01:50:19;;;;;;;22.45;3.10;;;10.60;99.90;;;;;;5054701;28;20080;-54
2022/09/17 01:52:47;;;;;;;17.88;3.10;;;10.60;99.90;;;;;;5054953;28;20136;-54
2022/09/17 01:55:15;;;;;;;17.65;2.50;;;10.60;99.90;;;;;;5054953;28;20041;-53
2022/09/17 01:57:45;;;;;;;15.93;2.70;;;10.60;99.90;;;;;;5058301;28;20458;-55
2022/09/17 02:00:13;;;;;;;17.80;2.40;;;10.70;99.90;;;;;;5054594;28;20049;-54
2022/09/17 02:02:41;;;;;;;22.92;3.13;;;10.70;99.90;;;;;;5048050;28;20124;-53
2022/09/17 02:05:12;;;;;;;24.25;2.65;;;10.70;99.90;;;;;;5054884;28;21674;-52
2022/09/17 02:07:40;;;;;;;15.73;2.20;;;10.70;99.90;;;;;;5036295;28;20131;-54
2022/09/17 02:10:08;;;;;;;21.60;2.50;;;10.60;99.90;;;;;;5054468;28;20138;-52
2022/09/17 02:12:38;;;;;;;19.33;2.08;;;10.60;99.90;;;;;;5052301;28;20067;-51
2022/09/17 02:15:07;;;;;;;15.60;2.08;;;10.60;99.90;;;;;;5037201;28;20049;-53
2022/09/17 02:17:36;;;;;;;16.15;2.40;;;10.60;99.90;;;;;;5054603;28;20515;-53
2022/09/17 02:20:03;;;;;;;21.92;2.90;;;10.60;99.90;;;;;;5054758;28;20484;-55
2022/09/17 02:22:35;;;;;;;18.77;2.90;;;10.60;99.90;;;;;;5054182;28;20106;-55
2022/09/17 02:25:04;;;;;;;13.05;2.22;;;10.60;99.90;;;;;;5062495;28;20067;-54
2022/09/17 02:27:37;;;;;;;19.40;3.05;;;10.60;99.90;;;;;;5047183;28;20128;-52
2022/09/17 02:30:04;;;;;;;19.30;2.55;;;10.60;99.90;;;;;;5054424;28;20053;-55
2022/09/17 02:32:31;;;;;;;21.13;2.10;;;10.60;99.90;;;;;;5060629;28;20365;-55
2022/09/17 02:34:58;;;;;;;19.63;2.30;;;10.60;99.90;;;;;;5035773;28;20053;-53
2022/09/17 02:37:26;;;;;;;17.92;2.42;;;10.60;99.90;;;;;;5054426;28;20091;-57
2022/09/17 02:39:54;;;;;;;20.48;2.80;;;10.60;99.90;;;;;;5036042;28;20456;-53
2022/09/17 02:42:22;;;;;;;15.27;2.17;;;10.60;99.90;;;;;;5054140;28;20136;-54
2022/09/17 02:44:54;;;;;;;14.70;2.38;;;10.60;99.90;;;;;;5061699;28;20637;-54
2022/09/17 02:47:29;;;;;;;20.75;2.90;;;10.60;99.90;;;;;;5053606;28;20047;-54
2022/09/17 02:50:08;;;;;;;14.32;2.70;;;10.60;99.90;;;;;;5037696;28;20056;-50
2022/09/17 02:52:41;;;;;;;14.10;2.40;;;10.60;99.90;;;;;;5053581;28;20041;-54
2022/09/17 02:55:12;;;;;;;20.48;2.75;;;10.60;99.90;;;;;;5037050;28;20136;-56
2022/09/17 02:57:41;;;;;;;18.55;2.78;;;10.70;99.90;;;;;;5049326;28;20096;-56
2022/09/17 03:00:09;;;;;;;17.73;2.33;;;10.70;99.90;;;;;;5050406;28;20053;-56
2022/09/17 03:02:38;;;;;;;20.17;2.20;;;10.70;99.90;;;;;;5050440;28;20574;-57
2022/09/17 03:05:06;;;;;;;17.40;2.30;;;10.70;99.90;;;;;;5049636;28;20080;-56
2022/09/17 03:07:33;;;;;;;18.98;2.10;;;10.70;99.90;;;;;;5045254;28;20505;-57
2022/09/17 03:10:00;;;;;;;16.70;2.35;;;10.70;99.90;;;;;;5042848;28;20401;-51
2022/09/17 03:12:28;;;;;;;14.10;2.30;;;10.70;99.90;;;;;;5034598;28;20477;-56
2022/09/17 03:14:55;;;;;;;13.32;2.33;;;10.70;99.90;;;;;;5032755;28;20045;-54
2022/09/17 03:17:22;;;;;;;13.65;2.60;;;10.60;99.90;;;;;;5038425;28;20049;-57
2022/09/17 03:19:48;;;;;;;12.48;2.60;;;10.60;99.90;;;;;;5029797;28;20053;-51
2022/09/17 03:22:15;;;;;;;14.30;1.95;;;10.60;99.90;;;;;;5031747;28;20534;-54
2022/09/17 03:24:42;;;;;;;13.65;2.17;;;10.50;99.90;;;;;;5051399;28;20045;-53
2022/09/17 03:27:09;;;;;;;9.18;1.58;;;10.50;99.90;;;;;;5045587;28;20049;-56
2022/09/17 03:29:37;;;;;;;15.23;1.90;;;10.50;99.90;;;;;;5042694;28;20088;-56
2022/09/17 03:32:04;;;;;;;12.45;2.30;;;10.50;99.90;;;;;;5046092;28;20068;-56
2022/09/17 03:34:31;;;;;;;12.07;2.15;;;10.40;99.90;;;;;;5023164;28;20053;-57
2022/09/17 03:36:57;;;;;;;12.68;2.05;;;10.40;99.90;;;;;;5048723;28;20049;-49
2022/09/17 03:39:24;;;;;;;6.45;1.20;;;10.40;99.90;;;;;;5043411;28;20131;-56
2022/09/17 03:41:51;;;;;;;9.13;1.60;;;10.40;99.90;;;;;;5048524;28;20048;-55
2022/09/17 03:44:18;;;;;;;11.68;1.80;;;10.40;99.90;;;;;;5049299;28;20460;-53
2022/09/17 03:46:46;;;;;;;7.10;1.52;;;10.40;99.90;;;;;;5052228;28;20048;-56
2022/09/17 03:49:13;;;;;;;9.05;1.77;;;10.30;99.90;;;;;;5044329;28;20053;-54
2022/09/17 03:51:40;;;;;;;10.40;1.20;;;10.30;99.90;;;;;;5052970;28;20115;-55
2022/09/17 03:54:07;;;;;;;11.63;1.77;;;10.30;99.90;;;;;;5022952;28;20080;-54
2022/09/17 03:56:33;;;;;;;10.55;2.03;;;10.30;99.90;;;;;;5044637;28;20101;-53
2022/09/17 03:59:00;;;;;;;15.73;2.63;;;10.20;99.90;;;;;;5069409;28;20098;-53
2022/09/17 04:01:27;;;;;;;13.25;1.58;;;10.20;99.90;;;;;;5061224;28;20085;-55
2022/09/17 04:03:55;;;;;;;12.20;1.90;;;10.20;99.90;;;;;;5061291;28;20091;-53
2022/09/17 04:06:22;;;;;;;12.65;1.73;;;10.20;99.90;;;;;;5073321;28;20166;-52
2022/09/17 04:08:49;;;;;;;17.52;2.13;;;10.10;99.90;;;;;;5054177;28;20572;-55
2022/09/17 04:11:16;;;;;;;13.48;2.47;;;10.20;99.90;;;;;;5062763;28;20123;-56
2022/09/17 04:13:42;;;;;;;20.80;2.60;;;10.10;99.90;;;;;;5056191;28;20106;-48
2022/09/17 04:16:10;;;;;;;11.80;2.17;;;10.20;99.90;;;;;;5072285;28;20537;-56
2022/09/17 04:18:37;;;;;;;21.98;2.92;;;10.20;99.90;;;;;;5071298;28;20059;-52
2022/09/17 04:21:05;;;;;;;15.45;1.92;;;10.20;99.90;;;;;;5071497;28;20121;-55
2022/09/17 04:23:32;;;;;;;20.20;2.35;;;10.20;99.90;;;;;;5072945;28;20084;-57
2022/09/17 04:25:59;;;;;;;13.70;2.13;;;10.10;99.90;;;;;;5072471;28;20091;-54
2022/09/17 04:28:25;;;;;;;17.88;2.40;;;10.10;99.90;;;;;;5052142;28;20474;-56
2022/09/17 04:30:52;;;;;;;13.95;2.47;;;10.10;99.90;;;;;;5072204;28;20114;-56
2022/09/17 04:33:19;;;;;;;19.58;2.70;;;10.10;99.90;;;;;;5070973;28;20084;-55
2022/09/17 04:35:46;;;;;;;18.77;2.28;;;10.10;99.90;;;;;;5072375;28;20504;-55
2022/09/17 04:38:17;;;;;;;16.67;2.28;;;10.10;99.90;;;;;;5059496;28;20601;-50
2022/09/17 04:40:45;;;;;;;10.73;1.75;;;10.10;99.90;;;;;;5062358;28;20056;-54
2022/09/17 04:43:12;;;;;;;14.95;2.10;;;10.10;99.90;;;;;;5054119;28;20056;-55
2022/09/17 04:45:38;;;;;;;17.38;2.60;;;10.10;99.90;;;;;;5055072;28;20044;-57
2022/09/17 04:48:05;;;;;;;14.18;2.50;;;10.10;99.90;;;;;;5072734;28;20147;-54
2022/09/17 04:50:32;;;;;;;14.20;2.38;;;10.20;99.90;;;;;;5056580;28;20051;-52
2022/09/17 04:52:59;;;;;;;10.77;1.98;;;10.20;99.90;;;;;;5048300;28;20489;-51
2022/09/17 04:55:27;;;;;;;12.93;2.30;;;10.20;99.90;;;;;;5052820;28;20449;-57
2022/09/17 04:57:54;;;;;;;14.88;2.53;;;10.20;99.90;;;;;;5020486;28;20041;-55
2022/09/17 05:00:21;;;;;;;17.88;2.33;;;10.30;99.90;;;;;;5050122;28;20045;-53
2022/09/17 05:02:54;;;;;;;15.45;2.28;;;10.20;99.90;;;;;;5052430;28;20126;-57
2022/09/17 05:05:21;;;;;;;14.88;2.05;;;10.20;99.90;;;;;;5048457;28;20080;-54
2022/09/17 05:07:48;;;;;;;12.57;2.10;;;10.30;99.90;;;;;;5047723;28;20053;-57
2022/09/17 05:10:16;;;;;;;15.75;2.17;;;10.30;99.90;;;;;;5047823;28;20049;-54
2022/09/17 05:12:49;;;;;;;13.73;2.15;;;10.30;99.90;;;;;;5057638;28;20076;-57
2022/09/17 05:15:16;;;;;;;15.88;2.47;;;10.30;99.90;;;;;;5049263;28;20048;-57
2022/09/17 05:17:43;;;;;;;11.63;2.05;;;10.30;99.90;;;;;;5037941;28;20068;-55
2022/09/17 05:20:10;;;;;;;18.00;2.35;;;10.30;99.90;;;;;;5053481;28;20060;-57
2022/09/17 05:22:41;;;;;;;11.90;1.80;;;10.30;99.90;;;;;;5037980;28;20053;-55
2022/09/17 05:25:09;;;;;;;17.10;2.45;;;10.30;99.90;;;;;;5052334;28;20568;-56
2022/09/17 05:27:35;;;;;;;12.75;2.10;;;10.30;99.90;;;;;;5039029;28;20084;-57
2022/09/17 05:30:04;;;;;;;11.57;2.08;;;10.30;99.90;;;;;;5057396;28;20084;-56
2022/09/17 05:32:32;;;;;;;12.00;2.10;;;10.30;99.90;;;;;;5050059;28;20128;-55
2022/09/17 05:34:59;;;;;;;13.77;1.80;;;10.40;99.90;;;;;;5036832;28;20045;-47
2022/09/17 05:37:25;;;;;;;11.35;1.65;;;10.40;99.90;;;;;;5031118;28;20045;-53
2022/09/17 05:39:52;;;;;;;10.07;1.80;;;10.40;99.90;;;;;;5032104;28;20056;-55
2022/09/17 05:42:19;;;;;;;11.85;1.88;;;10.40;99.90;;;;;;5044179;28;20140;-47
2022/09/17 05:44:46;;;;;;;14.40;1.80;;;10.40;99.90;;;;;;5043866;28;20095;-56
2022/09/17 05:47:14;;;;;;;16.02;2.53;;;10.40;99.90;;;;;;5028176;28;20103;-54
2022/09/17 05:49:41;;;;;;;14.88;1.65;;;10.40;99.90;;;;;;5048593;28;20076;-56
2022/09/17 05:52:07;;;;;;;15.38;2.30;;;10.40;99.90;;;;;;5032806;28;20125;-55
2022/09/17 05:54:34;;;;;;;16.98;3.00;;;10.40;99.90;;;;;;5048472;28;20084;-56
2022/09/17 05:57:01;;;;;;;13.52;1.80;;;10.40;99.90;;;;;;5042768;28;20517;-56
2022/09/17 05:59:28;;;;;;;9.10;2.05;;;10.40;99.90;;;;;;5052161;28;20128;-55
2022/09/17 06:01:55;;;;;;;13.88;2.20;;;10.30;99.90;;;;;;5041016;28;20140;-53
2022/09/17 06:04:23;;;;;;;11.32;2.20;;;10.30;99.90;;;;;;5058031;28;20124;-54
2022/09/17 06:06:50;;;;;;;9.65;1.50;;;10.30;99.90;;;;;;5052747;28;20132;-50
2022/09/17 06:09:16;;;;;;;13.18;2.15;;;10.40;99.90;;;;;;5058177;28;20045;-54
2022/09/17 06:11:43;;;;;;;16.17;2.28;;;10.30;99.90;;;;;;5057084;28;20083;-55
2022/09/17 06:14:10;;;;;;;17.05;2.42;;;10.40;99.90;;;;;;5060581;28;20041;-59
2022/09/17 06:16:37;;;;;;;19.55;3.08;;;10.40;99.90;;;;;;5064409;28;20040;-57
2022/09/17 06:19:04;;;;;;;12.38;1.88;;;10.40;99.90;;;;;;5061213;28;20049;-56
2022/09/17 06:21:32;;;;;;;11.25;1.73;;;10.40;99.90;;;;;;5041589;28;20063;-58
2022/09/17 06:23:59;;;;;;;13.63;1.98;;;10.30;99.90;;;;;;5060825;28;20091;-56
2022/09/17 06:26:25;;;;;;;13.73;1.85;;;10.30;99.90;;;;;;5058793;28;20120;-54
2022/09/17 06:28:52;;;;;;;15.38;2.08;;;10.30;99.90;;;;;;5055423;28;20089;-58
2022/09/17 06:31:19;;;;;;;14.05;2.00;;;10.30;99.90;;;;;;5055150;28;20048;-58
2022/09/17 06:33:47;;;;;;;11.57;1.83;;;10.30;99.90;;;;;;5052392;28;20049;-55
2022/09/17 06:36:13;;;;;;;9.80;1.73;;;10.30;99.90;;;;;;5054107;28;20056;-57
2022/09/17 06:38:41;;;;;;;9.07;1.70;;;10.40;99.90;;;;;;5036919;28;20062;-57
2022/09/17 06:41:08;;;;;;;14.02;1.70;;;10.50;99.90;;;;;;5050859;28;20040;-50
2022/09/17 06:43:35;;;;;;;10.95;1.77;;;10.60;99.90;;;;;;5044845;28;20800;-56
2022/09/17 06:46:04;;;;;;;16.98;1.85;;;10.70;99.90;;;;;;5036778;28;20473;-57
2022/09/17 06:48:31;;;;;;;12.55;1.73;;;10.70;99.90;;;;;;5051021;28;20097;-53
2022/09/17 06:51:01;;;;;;;12.73;1.67;;;10.70;99.90;;;;;;5036242;28;20405;-55
2022/09/17 06:53:29;;;;;;;17.30;2.45;;;10.70;99.90;;;;;;5051746;28;20451;-58
2022/09/17 06:55:58;;;;;;;12.60;1.88;;;10.70;99.90;;;;;;5038189;28;20500;-57
2022/09/17 06:58:25;;;;;;;14.88;2.13;;;10.70;99.90;;;;;;5077378;28;21162;-57
2022/09/17 07:00:52;;;;;;;13.75;1.88;;;10.70;99.90;;;;;;5047817;28;20069;-59
2022/09/17 07:03:19;;;;;;;12.35;1.77;;;10.70;99.90;;;;;;5060543;28;20063;-47
2022/09/17 07:05:45;;;;;;;11.27;1.83;;;10.70;99.90;;;;;;5072202;28;20058;-46
2022/09/17 07:08:12;;;;;;;10.82;1.77;;;10.80;99.90;;;;;;5081650;28;20521;-57
2022/09/17 07:10:39;;;;;;;9.00;1.58;;;10.90;99.90;;;;;;5075098;28;20551;-57
2022/09/17 07:13:07;;;;;;;14.95;1.90;;;11.00;99.90;;;;;;5075815;28;20048;-44
2022/09/17 07:15:34;;;;;;;15.48;2.15;;;11.00;99.90;;;;;;5069351;28;20373;-54
2022/09/17 07:18:02;;;;;;;13.35;2.00;;;11.00;99.90;;;;;;5074526;28;20095;-52
2022/09/17 07:20:29;;;;;;;15.32;1.70;;;11.10;99.90;;;;;;5055040;28;20139;-56
2022/09/17 07:22:56;;;;;;;19.98;2.45;;;11.20;99.90;;;;;;5069713;28;20087;-55
2022/09/17 07:25:23;;;;;;;10.88;1.35;;;11.20;99.90;;;;;;5058008;28;20522;-54
2022/09/17 07:27:50;;;;;;;11.52;1.70;;;11.30;99.90;;;;;;5073117;28;20139;-54
2022/09/17 07:30:18;;;;;;;15.55;1.67;;;11.40;99.90;;;;;;5073630;28;20080;-52
2022/09/17 07:32:45;;;;;;;9.85;1.15;;;11.60;99.90;;;;;;5064318;28;20480;-51
2022/09/17 07:35:12;;;;;;;13.00;1.75;;;11.80;99.90;;;;;;5071439;28;20445;-52
2022/09/17 07:37:38;;;;;;;13.15;1.48;;;12.00;99.90;;;;;;5073600;28;20051;-50
2022/09/17 07:40:07;;;;;;;10.40;1.38;;;12.10;99.90;;;;;;5060049;28;20087;-52
2022/09/17 07:42:34;;;;;;;11.82;1.48;;;12.10;99.90;;;;;;5084496;28;20055;-45
2022/09/17 07:45:01;;;;;;;9.77;1.60;;;12.00;99.90;;;;;;5055043;28;20114;-56
2022/09/17 07:47:29;;;;;;;9.23;1.55;;;12.10;99.90;;;;;;5076032;28;20520;-56
2022/09/17 07:49:56;;;;;;;11.20;1.33;;;12.10;99.90;;;;;;5073576;28;20127;-57
2022/09/17 07:52:23;;;;;;;7.05;1.38;;;12.00;99.90;;;;;;5055797;28;20069;-55
2022/09/17 07:54:50;;;;;;;11.30;1.45;;;12.10;99.90;;;;;;5072169;28;20078;-42
2022/09/17 07:57:17;;;;;;;5.10;1.05;;;12.30;99.90;;;;;;5066679;28;20488;-51
2022/09/17 07:59:43;;;;;;;14.48;1.63;;;12.50;99.90;;;;;;5054578;28;20057;-51
2022/09/17 08:02:12;;;;;;;7.40;1.55;;;12.70;99.90;;;;;;5051007;28;20045;-42
2022/09/17 08:04:41;;;;;;;9.27;1.15;;;12.90;99.90;;;;;;5064762;28;20048;-43
2022/09/17 08:07:11;;;;;;;9.38;1.90;;;13.00;99.90;;;;;;5073475;28;20086;-47
2022/09/17 08:09:38;;;;;;;6.15;1.40;;;13.10;99.90;;;;;;5073285;28;20456;-46
2022/09/17 08:12:05;;;;;;;7.70;1.00;;;13.10;99.90;;;;;;5055457;28;20052;-49
2022/09/17 08:14:32;;;;;;;10.38;1.50;;;13.00;99.90;;;;;;5071953;28;20449;-46
2022/09/17 08:16:58;;;;;;;6.57;1.17;;;12.90;99.90;;;;;;5072504;28;20109;-50
2022/09/17 08:19:28;;;;;;;11.43;1.38;;;12.80;99.90;;;;;;5073046;28;20056;-46
2022/09/17 08:21:56;;;;;;;5.50;1.02;;;12.80;99.90;;;;;;5073185;28;20060;-45
2022/09/17 08:24:23;;;;;;;7.93;1.30;;;12.80;99.90;;;;;;5063965;28;20135;-47
2022/09/17 08:26:50;;;;;;;7.63;1.58;;;12.80;99.90;;;;;;5072905;28;20413;-47
2022/09/17 08:29:17;;;;;;;11.48;1.75;;;12.90;99.90;;;;;;5072668;28;20523;-49
2022/09/17 08:31:44;;;;;;;8.20;1.20;;;13.00;99.90;;;;;;5072710;28;20548;-47
2022/09/17 08:34:11;;;;;;;10.23;1.00;;;13.00;99.90;;;;;;5071781;28;20074;-46
2022/09/17 08:36:38;;;;;;;7.40;1.02;;;13.10;99.90;;;;;;5072694;28;20080;-45
2022/09/17 08:39:06;;;;;;;7.85;1.40;;;13.20;99.90;;;;;;5062958;28;20128;-45
2022/09/17 08:41:40;;;;;;;8.15;1.27;;;13.10;99.90;;;;;;5045273;28;20131;-41
2022/09/17 08:44:14;;;;;;;6.95;1.20;;;13.20;99.90;;;;;;5072086;28;20052;-46
2022/09/17 08:46:44;;;;;;;8.43;1.10;;;13.30;99.90;;;;;;5054391;28;20416;-44
2022/09/17 08:49:14;;;;;;;4.15;1.23;;;13.30;99.90;;;;;;5040361;28;20457;-43
2022/09/17 08:51:44;;;;;;;8.13;1.33;;;13.30;99.90;;;;;;5070757;28;20056;-45
2022/09/17 08:54:14;;;;;;;7.60;1.10;;;13.40;99.90;;;;;;5051211;28;20102;-47
2022/09/17 08:56:41;;;;;;;5.05;0.90;;;13.50;99.90;;;;;;5040337;28;20106;-54
2022/09/17 08:59:14;;;;;;;9.57;1.20;;;13.50;99.90;;;;;;5076991;28;20094;-56
2022/09/17 09:01:45;;;;;;;8.00;1.45;;;13.40;99.90;;;;;;5071261;28;20046;-57
2022/09/17 09:04:19;;;;;;;9.52;0.98;;;13.30;99.90;;;;;;5071191;28;20450;-50
2022/09/17 09:06:48;;;;;;;10.75;2.97;;;13.30;99.90;;;;;;5065905;28;20199;-56
2022/09/17 09:09:17;;;;;;;9.77;1.10;;;13.40;99.90;;;;;;5065891;28;20045;-56
2022/09/17 09:11:44;;;;;;;8.52;1.35;;;13.40;99.90;;;;;;5071844;28;20087;-49
2022/09/17 09:14:13;;;;;;;5.75;1.10;;;13.50;99.90;;;;;;5070291;28;20512;-48
2022/09/17 09:16:41;;;;;;;6.60;0.90;;;13.70;99.90;;;;;;5072124;28;20457;-53
2022/09/17 09:19:15;;;;;;;5.90;0.80;;;13.70;99.90;;;;;;5071519;28;20075;-49
2022/09/17 09:21:44;;;;;;;6.80;1.13;;;13.80;99.90;;;;;;5071218;28;20451;-50
2022/09/17 09:24:19;;;;;;;5.72;1.00;;;14.00;99.90;;;;;;5053141;28;20639;-49
2022/09/17 09:26:47;;;;;;;8.73;1.30;;;14.20;99.90;;;;;;5051412;28;20106;-47
2022/09/17 09:29:18;;;;;;;7.13;1.50;;;14.30;99.90;;;;;;5068923;28;20060;-47
2022/09/17 09:31:51;;;;;;;7.63;1.55;;;14.30;99.90;;;;;;5053986;28;20080;-48
2022/09/17 09:34:18;;;;;;;11.05;1.52;;;14.40;99.90;;;;;;5068896;28;20057;-51
2022/09/17 09:36:45;;;;;;;11.13;1.90;;;14.50;99.90;;;;;;5050629;28;20076;-46
2022/09/17 09:39:15;;;;;;;8.77;1.38;;;14.70;99.90;;;;;;5053429;28;20049;-45
2022/09/17 09:41:46;;;;;;;7.88;1.48;;;14.90;99.90;;;;;;5068191;28;20492;-44
2022/09/17 09:44:13;;;;;;;7.95;1.40;;;15.00;99.90;;;;;;5069237;28;20048;-51
2022/09/17 09:46:47;;;;;;;8.35;1.20;;;15.00;99.90;;;;;;5071839;28;20150;-49
2022/09/17 09:49:20;;;;;;;9.50;1.25;;;14.80;99.90;;;;;;5070870;28;20088;-50
2022/09/17 09:51:52;;;;;;;6.50;1.13;;;14.70;99.90;;;;;;5053720;28;20069;-43
2022/09/17 09:54:31;;;;;;;6.00;0.85;;;14.50;99.90;;;;;;5043869;28;20135;-47
2022/09/17 09:57:02;;;;;;;3.28;0.57;;;14.60;99.90;;;;;;5038447;28;20088;-49
2022/09/17 09:59:29;;;;;;;5.88;0.90;;;14.60;99.90;;;;;;5031426;28;20057;-46
2022/09/17 10:01:56;;;;;;;3.83;0.60;;;14.60;99.90;;;;;;5052072;28;20076;-50
2022/09/17 10:04:24;;;;;;;7.35;0.90;;;14.60;99.90;;;;;;5049122;28;20079;-47
2022/09/17 10:06:52;;;;;;;7.57;1.00;;;14.60;99.90;;;;;;5053756;28;20489;-49
2022/09/17 10:09:20;;;;;;;5.40;1.00;;;14.60;99.90;;;;;;5033006;28;20130;-51
2022/09/17 10:12:01;;;;;;;7.70;1.10;;;14.50;99.90;;;;;;5033807;28;20299;-53
2022/09/17 10:14:28;;;;;;;8.50;0.88;;;14.40;99.90;;;;;;5036844;28;20077;-53
2022/09/17 10:17:11;;;;;;;11.23;1.60;;;14.30;99.90;;;;;;5022730;28;20508;-51
2022/09/17 10:19:38;;;;;;;5.45;1.27;;;14.30;99.90;;;;;;5053354;28;20059;-51
2022/09/17 10:22:19;;;;;;;6.32;1.40;;;14.30;99.90;;;;;;5053504;28;20127;-47
2022/09/17 10:24:45;;;;;;;9.93;1.52;;;14.40;99.90;;;;;;5055181;28;20132;-51
2022/09/17 10:27:15;;;;;;;6.72;1.17;;;14.50;99.90;;;;;;5033754;28;20041;-49
2022/09/17 10:29:42;;;;;;;4.05;0.65;;;14.70;99.90;;;;;;5050302;28;20489;-44
2022/09/17 10:32:14;;;;;;;6.65;1.00;;;14.80;99.90;;;;;;5029216;28;20060;-58
2022/09/17 10:34:41;;;;;;;5.05;1.27;;;14.90;99.90;;;;;;5037475;28;20763;-62
2022/09/17 10:37:31;;;;;;;5.47;0.85;;;15.00;99.90;;;;;;5054917;28;20049;-59
2022/09/17 10:39:57;;;;;;;7.00;1.20;;;15.00;99.90;;;;;;5053453;28;20080;-56
2022/09/17 10:42:25;;;;;;;7.00;1.10;;;14.90;99.90;;;;;;5055320;28;20132;-57
2022/09/17 10:44:53;;;;;;;6.65;1.23;;;14.90;99.90;;;;;;5036861;28;20092;-57
2022/09/17 10:47:22;;;;;;;8.73;1.73;;;15.00;99.90;;;;;;5054446;28;20084;-55
2022/09/17 10:49:49;;;;;;;8.55;1.63;;;15.20;99.90;;;;;;5052790;28;20095;-54
2022/09/17 10:52:23;;;;;;;9.50;1.30;;;15.40;99.90;;;;;;5036965;28;20076;-51
2022/09/17 10:55:09;;;;;;;10.80;1.73;;;15.50;99.90;;;;;;5037111;28;20107;-50
2022/09/17 10:57:56;;;;;;;14.25;1.70;;;15.60;99.60;;;;;;5051570;28;20447;-50
2022/09/17 11:00:24;;;;;;;9.18;1.40;;;15.70;99.50;;;;;;5073926;28;20102;-49
2022/09/17 11:03:30;;;;;;;12.18;1.75;;;15.90;99.60;;;;;;5072457;28;20048;-47
2022/09/17 11:06:05;;;;;;;7.80;1.77;;;16.00;99.00;;;;;;5035417;28;20053;-47
2022/09/17 11:08:33;;;;;;;10.52;1.83;;;16.10;99.10;;;;;;5069732;28;20053;-47
2022/09/17 11:11:04;;;;;;;12.43;1.63;;;16.20;99.10;;;;;;5074421;28;20090;-48
2022/09/17 11:13:35;;;;;;;10.63;1.15;;;16.30;98.00;;;;;;5056662;28;20056;-44
2022/09/17 11:16:06;;;;;;;;;;;16.20;96.90;;;;;;5071730;28;20047;-42
2022/09/17 11:18:36;;;;;;;10.50;1.50;;;16.10;96.00;;;;;;5055416;28;19920;-48
2022/09/17 11:21:45;;;;;;;15.30;2.15;;;16.20;97.30;;;;;;5055959;28;20110;-60
2022/09/17 11:24:33;;;;;;;6.78;1.80;;;16.10;97.40;;;;;;5042030;28;20056;-58
2022/09/17 11:27:05;;;;;;;8.55;1.20;;;15.70;97.40;;;;;;5056807;28;20502;-61
2022/09/17 11:29:42;;;;;;;3.83;1.02;;;15.30;98.00;;;;;;5051042;28;20487;-61
2022/09/17 11:32:14;;;;;;;7.80;1.38;;;15.00;98.30;;;;;;5070702;28;20099;-58
2022/09/17 11:34:41;;;;;;;7.90;1.40;;;14.70;98.50;;;;;;5074212;28;20106;-57
2022/09/17 11:37:10;;;;;;;6.65;1.20;;;14.30;99.00;;;;;;5075385;28;20468;-57
2022/09/17 11:39:41;;;;;;;7.72;1.48;;;14.00;99.60;;;;;;5042952;28;20049;-57
2022/09/17 11:42:10;;;;;;;10.30;1.83;;;13.90;99.90;;;;;;5057016;28;20048;-58
2022/09/17 11:44:40;;;;;;;6.95;1.20;;;13.70;99.90;;;;;;5062397;28;20122;-57
2022/09/17 11:47:09;;;;;;;10.05;1.40;;;13.70;99.90;;;;;;5058878;28;20090;-49
2022/09/17 11:49:39;;;;;;;9.57;1.60;;;13.60;99.90;;;;;;5059425;28;20040;-58
2022/09/17 11:52:07;;;;;;;5.88;1.13;;;13.60;99.90;;;;;;5067803;28;20045;-56
2022/09/17 11:54:36;;;;;;;6.40;1.30;;;13.70;99.90;;;;;;5047164;28;20386;-54
2022/09/17 11:57:06;;;;;;;8.93;1.10;;;13.80;99.90;;;;;;5048867;28;20080;-50
2022/09/17 11:59:35;;;;;;;8.55;1.33;;;14.10;99.90;;;;;;5057323;28;20053;-53
2022/09/17 12:02:05;;;;;;;7.75;1.52;;;14.10;99.90;;;;;;5065635;28;20119;-49
2022/09/17 12:04:40;;;;;;;4.65;1.08;;;14.10;99.70;;;;;;5068191;28;20048;-51
2022/09/17 12:07:15;;;;;;;3.70;1.13;;;14.10;99.90;;;;;;5046333;28;20409;-47
2022/09/17 12:09:43;;;;;;;10.77;1.52;;;14.00;99.90;;;;;;5049264;28;20512;-46
2022/09/17 12:12:12;;;;;;;9.30;1.85;;;14.00;99.90;;;;;;5051257;28;20098;-49
2022/09/17 12:14:43;;;;;;;7.45;1.38;;;13.90;99.90;;;;;;5037051;28;20145;-49
2022/09/17 12:17:12;;;;;;;11.07;1.95;;;14.00;99.90;;;;;;5050557;28;20053;-47
2022/09/17 12:19:41;;;;;;;9.02;1.75;;;14.00;99.90;;;;;;5055014;28;20051;-47
2022/09/17 12:22:08;;;;;;;13.63;2.00;;;14.10;99.90;;;;;;5060474;28;20077;-52
2022/09/17 12:24:35;;;;;;;11.98;2.00;;;14.10;99.90;;;;;;5062111;28;20052;-53
2022/09/17 12:27:13;;;;;;;11.25;1.88;;;14.10;99.90;;;;;;5070820;28;20124;-53
2022/09/17 12:29:53;;;;;;;10.10;1.58;;;14.20;99.90;;;;;;5069809;28;20056;-56
2022/09/17 12:32:58;;;;;;;16.05;2.00;;;14.20;99.90;;;;;;5053272;28;20124;-53
2022/09/17 12:35:41;;;;;;;9.13;1.60;;;14.40;99.90;;;;;;5018739;28;20095;-49
2022/09/17 12:38:15;;;;;;;12.25;2.30;;;14.80;99.90;;;;;;5044372;28;20056;-50
2022/09/17 12:40:43;;;;;;;17.77;2.55;;;15.00;99.90;;;;;;5047949;28;20128;-51
2022/09/17 12:43:18;;;;;;;15.38;2.05;;;15.30;99.90;;;;;;5067793;28;20083;-49
2022/09/17 12:46:00;;;;;;;10.60;2.03;;;15.50;99.90;;;;;;5047011;28;20498;-44
2022/09/17 12:48:40;;;;;;;16.67;2.17;;;15.60;99.60;;;;;;5062934;28;20140;-46
2022/09/17 12:51:17;;;;;;;10.60;1.65;;;15.70;99.40;;;;;;5075001;28;20036;-44
2022/09/17 12:53:46;;;;;;;13.65;2.20;;;15.90;99.10;;;;;;5049361;28;20055;-49